sensor_id;sensor_type;location;lat;lon;timestamp;temperature;humidity
33023;DHT22;19390;51.460;5.710;2022-08-03T00:01:43;18.10;99.90
33023;DHT22;19390;51.460;5.710;2022-08-03T00:04:10;18.10;99.90
33023;DHT22;19390;51.460;5.710;2022-08-03T00:06:36;18.00;99.90
33023;DHT22;19390;51.460;5.710;2022-08-03T00:09:02;18.20;99.90
33023;DHT22;19390;51.460;5.710;2022-08-03T00:11:28;18.20;99.90
33023;DHT22;19390;51.460;5.710;2022-08-03T00:13:54;18.30;99.90
33023;DHT22;19390;51.460;5.710;2022-08-03T00:16:19;18.30;99.90
33023;DHT22;19390;51.460;5.710;2022-08-03T00:18:45;18.20;99.90
33023;DHT22;19390;51.460;5.710;2022-08-03T00:21:11;18.10;99.90
33023;DHT22;19390;51.460;5.710;2022-08-03T00:23:37;18.00;99.90
33023;DHT22;19390;51.460;5.710;2022-08-03T00:26:02;17.90;99.90
33023;DHT22;19390;51.460;5.710;2022-08-03T00:28:28;17.80;99.90
33023;DHT22;19390;51.460;5.710;2022-08-03T00:30:54;17.80;99.90
33023;DHT22;19390;51.460;5.710;2022-08-03T00:33:22;17.70;99.90
33023;DHT22;19390;51.460;5.710;2022-08-03T00:35:48;17.70;99.90
33023;DHT22;19390;51.460;5.710;2022-08-03T00:38:14;17.70;99.90
33023;DHT22;19390;51.460;5.710;2022-08-03T00:40:39;17.70;99.90
33023;DHT22;19390;51.460;5.710;2022-08-03T00:43:07;17.60;99.90
33023;DHT22;19390;51.460;5.710;2022-08-03T00:45:38;17.60;99.90
33023;DHT22;19390;51.460;5.710;2022-08-03T00:48:05;17.50;99.90
33023;DHT22;19390;51.460;5.710;2022-08-03T00:50:35;17.40;99.90
33023;DHT22;19390;51.460;5.710;2022-08-03T00:53:02;17.40;99.90
33023;DHT22;19390;51.460;5.710;2022-08-03T00:55:28;17.40;99.90
33023;DHT22;19390;51.460;5.710;2022-08-03T00:57:55;17.40;99.90
33023;DHT22;19390;51.460;5.710;2022-08-03T01:00:24;17.40;99.90
33023;DHT22;19390;51.460;5.710;2022-08-03T01:02:50;17.30;99.90
33023;DHT22;19390;51.460;5.710;2022-08-03T01:05:18;17.30;99.90
33023;DHT22;19390;51.460;5.710;2022-08-03T01:07:59;17.30;99.90
33023;DHT22;19390;51.460;5.710;2022-08-03T01:10:53;17.20;99.90
33023;DHT22;19390;51.460;5.710;2022-08-03T01:16:25;17.00;99.90
33023;DHT22;19390;51.460;5.710;2022-08-03T01:18:59;17.00;99.90
33023;DHT22;19390;51.460;5.710;2022-08-03T01:27:36;17.00;99.90
33023;DHT22;19390;51.460;5.710;2022-08-03T01:30:08;17.00;99.90
33023;DHT22;19390;51.460;5.710;2022-08-03T01:32:53;16.90;99.90
33023;DHT22;19390;51.460;5.710;2022-08-03T01:35:40;16.90;99.90
33023;DHT22;19390;51.460;5.710;2022-08-03T01:38:11;16.90;99.90
33023;DHT22;19390;51.460;5.710;2022-08-03T01:40:39;16.80;99.90
33023;DHT22;19390;51.460;5.710;2022-08-03T01:43:06;16.80;99.90
33023;DHT22;19390;51.460;5.710;2022-08-03T01:45:33;16.90;99.90
33023;DHT22;19390;51.460;5.710;2022-08-03T01:48:01;16.90;99.90
33023;DHT22;19390;51.460;5.710;2022-08-03T01:50:29;16.90;99.90
33023;DHT22;19390;51.460;5.710;2022-08-03T01:52:56;16.90;99.90
33023;DHT22;19390;51.460;5.710;2022-08-03T01:55:23;16.90;99.90
33023;DHT22;19390;51.460;5.710;2022-08-03T01:57:51;16.80;99.90
33023;DHT22;19390;51.460;5.710;2022-08-03T02:00:18;16.80;99.90
33023;DHT22;19390;51.460;5.710;2022-08-03T02:02:46;16.80;99.90
33023;DHT22;19390;51.460;5.710;2022-08-03T02:05:13;16.80;99.90
33023;DHT22;19390;51.460;5.710;2022-08-03T02:07:41;16.70;99.90
33023;DHT22;19390;51.460;5.710;2022-08-03T02:10:08;16.80;99.90
33023;DHT22;19390;51.460;5.710;2022-08-03T02:12:36;16.70;99.90
33023;DHT22;19390;51.460;5.710;2022-08-03T02:15:03;16.70;99.90
33023;DHT22;19390;51.460;5.710;2022-08-03T02:17:30;16.70;99.90
33023;DHT22;19390;51.460;5.710;2022-08-03T02:19:58;16.70;99.90
33023;DHT22;19390;51.460;5.710;2022-08-03T02:22:24;16.60;99.90
33023;DHT22;19390;51.460;5.710;2022-08-03T02:24:51;16.60;99.90
33023;DHT22;19390;51.460;5.710;2022-08-03T02:27:22;16.70;99.90
33023;DHT22;19390;51.460;5.710;2022-08-03T02:29:52;16.70;99.90
33023;DHT22;19390;51.460;5.710;2022-08-03T02:32:23;16.60;99.90
33023;DHT22;19390;51.460;5.710;2022-08-03T02:34:52;16.50;99.90
33023;DHT22;19390;51.460;5.710;2022-08-03T02:37:20;16.50;99.90
33023;DHT22;19390;51.460;5.710;2022-08-03T02:39:50;16.40;99.90
33023;DHT22;19390;51.460;5.710;2022-08-03T02:42:20;16.50;99.90
33023;DHT22;19390;51.460;5.710;2022-08-03T02:44:48;16.50;99.90
33023;DHT22;19390;51.460;5.710;2022-08-03T02:47:14;16.50;99.90
33023;DHT22;19390;51.460;5.710;2022-08-03T02:49:42;16.40;99.90
33023;DHT22;19390;51.460;5.710;2022-08-03T02:52:09;16.50;99.90
33023;DHT22;19390;51.460;5.710;2022-08-03T02:54:37;16.40;99.90
33023;DHT22;19390;51.460;5.710;2022-08-03T02:57:06;16.40;99.90
33023;DHT22;19390;51.460;5.710;2022-08-03T02:59:32;16.40;99.90
33023;DHT22;19390;51.460;5.710;2022-08-03T03:01:59;16.40;99.90
33023;DHT22;19390;51.460;5.710;2022-08-03T03:04:28;16.50;99.90
33023;DHT22;19390;51.460;5.710;2022-08-03T03:06:54;16.60;99.90
33023;DHT22;19390;51.460;5.710;2022-08-03T03:09:21;16.60;99.90
33023;DHT22;19390;51.460;5.710;2022-08-03T03:11:48;16.50;99.90
33023;DHT22;19390;51.460;5.710;2022-08-03T03:14:14;16.60;99.90
33023;DHT22;19390;51.460;5.710;2022-08-03T03:16:41;16.50;99.90
33023;DHT22;19390;51.460;5.710;2022-08-03T03:19:07;16.50;99.90
33023;DHT22;19390;51.460;5.710;2022-08-03T03:21:34;16.50;99.90
33023;DHT22;19390;51.460;5.710;2022-08-03T03:24:01;16.50;99.90
33023;DHT22;19390;51.460;5.710;2022-08-03T03:26:28;16.50;99.90
33023;DHT22;19390;51.460;5.710;2022-08-03T03:28:54;16.40;99.90
33023;DHT22;19390;51.460;5.710;2022-08-03T03:31:21;16.40;99.90
33023;DHT22;19390;51.460;5.710;2022-08-03T03:33:47;16.40;99.90
33023;DHT22;19390;51.460;5.710;2022-08-03T03:36:12;16.30;99.90
33023;DHT22;19390;51.460;5.710;2022-08-03T03:38:38;16.30;99.90
33023;DHT22;19390;51.460;5.710;2022-08-03T03:41:04;16.30;99.90
33023;DHT22;19390;51.460;5.710;2022-08-03T03:43:30;16.30;99.90
33023;DHT22;19390;51.460;5.710;2022-08-03T03:45:56;16.50;99.90
33023;DHT22;19390;51.460;5.710;2022-08-03T03:48:24;16.60;99.90
33023;DHT22;19390;51.460;5.710;2022-08-03T03:50:50;16.50;99.90
33023;DHT22;19390;51.460;5.710;2022-08-03T03:53:15;16.50;99.90
33023;DHT22;19390;51.460;5.710;2022-08-03T03:55:41;16.50;99.90
33023;DHT22;19390;51.460;5.710;2022-08-03T03:58:07;16.50;99.90
33023;DHT22;19390;51.460;5.710;2022-08-03T04:00:33;16.40;99.90
33023;DHT22;19390;51.460;5.710;2022-08-03T04:02:59;16.50;99.90
33023;DHT22;19390;51.460;5.710;2022-08-03T04:05:24;16.40;99.90
33023;DHT22;19390;51.460;5.710;2022-08-03T04:08:17;16.40;99.90
33023;DHT22;19390;51.460;5.710;2022-08-03T04:11:27;16.60;99.90
33023;DHT22;19390;51.460;5.710;2022-08-03T04:14:02;16.60;99.90
33023;DHT22;19390;51.460;5.710;2022-08-03T04:16:31;16.60;99.90
33023;DHT22;19390;51.460;5.710;2022-08-03T04:19:09;16.60;99.90
33023;DHT22;19390;51.460;5.710;2022-08-03T04:21:40;16.50;99.90
33023;DHT22;19390;51.460;5.710;2022-08-03T04:24:08;16.60;99.90
33023;DHT22;19390;51.460;5.710;2022-08-03T04:26:37;16.60;99.90
33023;DHT22;19390;51.460;5.710;2022-08-03T04:29:04;16.60;99.90
33023;DHT22;19390;51.460;5.710;2022-08-03T04:31:31;16.60;99.90
33023;DHT22;19390;51.460;5.710;2022-08-03T04:33:58;16.60;99.90
33023;DHT22;19390;51.460;5.710;2022-08-03T04:36:25;16.60;99.90
33023;DHT22;19390;51.460;5.710;2022-08-03T04:38:57;16.50;99.90
33023;DHT22;19390;51.460;5.710;2022-08-03T04:41:25;16.70;99.90
33023;DHT22;19390;51.460;5.710;2022-08-03T04:43:54;16.80;99.90
33023;DHT22;19390;51.460;5.710;2022-08-03T04:46:22;17.00;99.90
33023;DHT22;19390;51.460;5.710;2022-08-03T04:48:48;17.20;99.90
33023;DHT22;19390;51.460;5.710;2022-08-03T04:51:14;17.40;99.90
33023;DHT22;19390;51.460;5.710;2022-08-03T04:53:42;17.50;99.90
33023;DHT22;19390;51.460;5.710;2022-08-03T04:56:07;17.60;99.90
33023;DHT22;19390;51.460;5.710;2022-08-03T04:58:33;17.70;99.90
33023;DHT22;19390;51.460;5.710;2022-08-03T05:00:59;17.80;99.90
33023;DHT22;19390;51.460;5.710;2022-08-03T05:03:24;18.00;99.90
33023;DHT22;19390;51.460;5.710;2022-08-03T05:05:53;18.00;99.90
33023;DHT22;19390;51.460;5.710;2022-08-03T05:08:19;18.20;99.90
33023;DHT22;19390;51.460;5.710;2022-08-03T05:10:45;18.30;99.90
33023;DHT22;19390;51.460;5.710;2022-08-03T05:13:11;18.40;99.90
33023;DHT22;19390;51.460;5.710;2022-08-03T05:15:38;18.60;99.90
33023;DHT22;19390;51.460;5.710;2022-08-03T05:18:04;19.30;99.90
33023;DHT22;19390;51.460;5.710;2022-08-03T05:20:29;19.70;99.90
33023;DHT22;19390;51.460;5.710;2022-08-03T05:22:55;20.50;99.90
33023;DHT22;19390;51.460;5.710;2022-08-03T05:25:21;20.90;99.90
33023;DHT22;19390;51.460;5.710;2022-08-03T05:27:47;22.00;99.90
33023;DHT22;19390;51.460;5.710;2022-08-03T05:30:13;22.50;99.90
33023;DHT22;19390;51.460;5.710;2022-08-03T05:32:38;23.20;99.90
33023;DHT22;19390;51.460;5.710;2022-08-03T05:35:04;24.10;99.90
33023;DHT22;19390;51.460;5.710;2022-08-03T05:37:30;25.50;99.90
33023;DHT22;19390;51.460;5.710;2022-08-03T05:39:56;25.80;99.90
33023;DHT22;19390;51.460;5.710;2022-08-03T05:42:21;26.80;99.90
33023;DHT22;19390;51.460;5.710;2022-08-03T05:44:47;27.30;99.90
33023;DHT22;19390;51.460;5.710;2022-08-03T05:47:12;27.10;99.90
33023;DHT22;19390;51.460;5.710;2022-08-03T05:49:38;27.30;99.90
33023;DHT22;19390;51.460;5.710;2022-08-03T05:52:03;27.40;99.90
33023;DHT22;19390;51.460;5.710;2022-08-03T05:54:29;28.30;99.90
33023;DHT22;19390;51.460;5.710;2022-08-03T05:56:55;28.90;99.90
33023;DHT22;19390;51.460;5.710;2022-08-03T05:59:20;29.60;99.90
33023;DHT22;19390;51.460;5.710;2022-08-03T06:01:46;28.40;99.90
33023;DHT22;19390;51.460;5.710;2022-08-03T06:04:12;28.50;99.90
33023;DHT22;19390;51.460;5.710;2022-08-03T06:06:38;28.90;99.90
33023;DHT22;19390;51.460;5.710;2022-08-03T06:09:03;29.60;99.90
33023;DHT22;19390;51.460;5.710;2022-08-03T06:11:29;29.50;99.90
33023;DHT22;19390;51.460;5.710;2022-08-03T06:13:55;30.30;99.90
33023;DHT22;19390;51.460;5.710;2022-08-03T06:16:20;29.30;99.90
33023;DHT22;19390;51.460;5.710;2022-08-03T06:18:46;29.90;99.90
33023;DHT22;19390;51.460;5.710;2022-08-03T06:21:12;29.60;99.90
33023;DHT22;19390;51.460;5.710;2022-08-03T06:23:37;30.50;99.90
33023;DHT22;19390;51.460;5.710;2022-08-03T06:26:03;31.00;99.90
33023;DHT22;19390;51.460;5.710;2022-08-03T06:28:29;30.80;99.90
33023;DHT22;19390;51.460;5.710;2022-08-03T06:30:54;30.80;99.90
33023;DHT22;19390;51.460;5.710;2022-08-03T06:33:20;31.70;99.90
33023;DHT22;19390;51.460;5.710;2022-08-03T06:35:46;31.20;99.90
33023;DHT22;19390;51.460;5.710;2022-08-03T06:38:11;31.20;99.90
33023;DHT22;19390;51.460;5.710;2022-08-03T06:40:37;32.20;99.90
33023;DHT22;19390;51.460;5.710;2022-08-03T06:43:06;32.00;99.90
33023;DHT22;19390;51.460;5.710;2022-08-03T06:45:33;32.10;99.90
33023;DHT22;19390;51.460;5.710;2022-08-03T06:48:08;31.80;99.90
33023;DHT22;19390;51.460;5.710;2022-08-03T06:50:35;31.90;99.90
33023;DHT22;19390;51.460;5.710;2022-08-03T06:53:01;31.90;99.90
33023;DHT22;19390;51.460;5.710;2022-08-03T06:55:27;31.60;99.90
33023;DHT22;19390;51.460;5.710;2022-08-03T06:57:53;33.10;99.90
33023;DHT22;19390;51.460;5.710;2022-08-03T07:00:20;32.20;99.90
33023;DHT22;19390;51.460;5.710;2022-08-03T07:02:46;33.00;99.90
33023;DHT22;19390;51.460;5.710;2022-08-03T07:05:12;32.60;99.90
33023;DHT22;19390;51.460;5.710;2022-08-03T07:07:38;33.30;99.90
33023;DHT22;19390;51.460;5.710;2022-08-03T07:10:05;35.60;99.90
33023;DHT22;19390;51.460;5.710;2022-08-03T07:12:32;34.70;99.90
33023;DHT22;19390;51.460;5.710;2022-08-03T07:14:59;34.60;99.90
33023;DHT22;19390;51.460;5.710;2022-08-03T07:17:25;34.20;99.90
33023;DHT22;19390;51.460;5.710;2022-08-03T07:19:50;34.50;99.90
33023;DHT22;19390;51.460;5.710;2022-08-03T07:22:16;34.10;99.90
33023;DHT22;19390;51.460;5.710;2022-08-03T07:24:42;34.40;99.90
33023;DHT22;19390;51.460;5.710;2022-08-03T07:27:08;32.10;99.90
33023;DHT22;19390;51.460;5.710;2022-08-03T07:29:34;32.40;99.90
33023;DHT22;19390;51.460;5.710;2022-08-03T07:32:01;32.90;99.90
33023;DHT22;19390;51.460;5.710;2022-08-03T07:34:27;32.30;99.90
33023;DHT22;19390;51.460;5.710;2022-08-03T07:36:53;31.70;99.90
33023;DHT22;19390;51.460;5.710;2022-08-03T07:39:19;32.80;99.90
33023;DHT22;19390;51.460;5.710;2022-08-03T07:41:45;32.10;99.90
33023;DHT22;19390;51.460;5.710;2022-08-03T07:44:11;32.90;99.90
33023;DHT22;19390;51.460;5.710;2022-08-03T07:46:37;31.80;99.90
33023;DHT22;19390;51.460;5.710;2022-08-03T07:49:03;31.10;99.90
33023;DHT22;19390;51.460;5.710;2022-08-03T07:51:28;32.00;99.90
33023;DHT22;19390;51.460;5.710;2022-08-03T07:53:54;31.80;99.90
33023;DHT22;19390;51.460;5.710;2022-08-03T07:56:22;34.30;99.90
33023;DHT22;19390;51.460;5.710;2022-08-03T07:58:50;34.10;99.90
33023;DHT22;19390;51.460;5.710;2022-08-03T08:01:15;35.10;99.90
33023;DHT22;19390;51.460;5.710;2022-08-03T08:03:41;35.30;99.90
33023;DHT22;19390;51.460;5.710;2022-08-03T08:06:07;34.50;99.90
33023;DHT22;19390;51.460;5.710;2022-08-03T08:08:32;34.90;99.90
33023;DHT22;19390;51.460;5.710;2022-08-03T08:10:58;34.50;99.90
33023;DHT22;19390;51.460;5.710;2022-08-03T08:13:23;31.90;99.90
33023;DHT22;19390;51.460;5.710;2022-08-03T08:15:49;33.20;99.90
33023;DHT22;19390;51.460;5.710;2022-08-03T08:18:14;36.50;99.90
33023;DHT22;19390;51.460;5.710;2022-08-03T08:20:40;33.60;99.90
33023;DHT22;19390;51.460;5.710;2022-08-03T08:23:07;34.90;99.90
33023;DHT22;19390;51.460;5.710;2022-08-03T08:25:34;37.30;99.90
33023;DHT22;19390;51.460;5.710;2022-08-03T08:28:00;36.70;99.90
33023;DHT22;19390;51.460;5.710;2022-08-03T08:30:27;35.50;99.90
33023;DHT22;19390;51.460;5.710;2022-08-03T08:32:52;34.20;99.90
33023;DHT22;19390;51.460;5.710;2022-08-03T08:35:18;34.30;99.90
33023;DHT22;19390;51.460;5.710;2022-08-03T08:37:45;34.50;99.90
33023;DHT22;19390;51.460;5.710;2022-08-03T08:40:11;35.80;99.90
33023;DHT22;19390;51.460;5.710;2022-08-03T08:42:38;36.10;99.90
33023;DHT22;19390;51.460;5.710;2022-08-03T08:45:04;35.00;99.90
33023;DHT22;19390;51.460;5.710;2022-08-03T08:47:34;34.40;99.90
33023;DHT22;19390;51.460;5.710;2022-08-03T08:50:02;35.60;99.90
33023;DHT22;19390;51.460;5.710;2022-08-03T08:52:29;36.00;99.90
33023;DHT22;19390;51.460;5.710;2022-08-03T08:55:05;35.90;99.90
33023;DHT22;19390;51.460;5.710;2022-08-03T08:57:55;35.80;99.90
33023;DHT22;19390;51.460;5.710;2022-08-03T09:00:21;35.90;99.90
33023;DHT22;19390;51.460;5.710;2022-08-03T09:02:47;35.50;99.90
33023;DHT22;19390;51.460;5.710;2022-08-03T09:05:15;35.70;99.90
33023;DHT22;19390;51.460;5.710;2022-08-03T09:07:42;36.10;99.90
33023;DHT22;19390;51.460;5.710;2022-08-03T09:10:09;35.90;99.90
33023;DHT22;19390;51.460;5.710;2022-08-03T09:12:43;37.00;99.90
33023;DHT22;19390;51.460;5.710;2022-08-03T09:15:35;38.40;99.90
33023;DHT22;19390;51.460;5.710;2022-08-03T09:18:03;39.60;99.90
33023;DHT22;19390;51.460;5.710;2022-08-03T09:20:32;39.20;99.90
33023;DHT22;19390;51.460;5.710;2022-08-03T09:23:02;39.10;99.90
33023;DHT22;19390;51.460;5.710;2022-08-03T09:25:31;39.50;99.90
33023;DHT22;19390;51.460;5.710;2022-08-03T09:28:06;39.70;99.90
33023;DHT22;19390;51.460;5.710;2022-08-03T09:30:32;38.80;99.90
33023;DHT22;19390;51.460;5.710;2022-08-03T09:33:02;39.60;99.90
33023;DHT22;19390;51.460;5.710;2022-08-03T09:35:28;39.80;99.90
33023;DHT22;19390;51.460;5.710;2022-08-03T09:38:11;39.60;99.90
33023;DHT22;19390;51.460;5.710;2022-08-03T09:40:37;34.50;99.90
33023;DHT22;19390;51.460;5.710;2022-08-03T09:43:03;35.30;99.90
33023;DHT22;19390;51.460;5.710;2022-08-03T09:45:33;35.10;99.90
33023;DHT22;19390;51.460;5.710;2022-08-03T09:48:19;38.20;99.90
33023;DHT22;19390;51.460;5.710;2022-08-03T09:50:52;38.60;99.90
33023;DHT22;19390;51.460;5.710;2022-08-03T09:53:18;37.40;99.90
33023;DHT22;19390;51.460;5.710;2022-08-03T09:55:59;35.10;99.90
33023;DHT22;19390;51.460;5.710;2022-08-03T09:58:27;38.10;99.90
33023;DHT22;19390;51.460;5.710;2022-08-03T10:01:03;37.80;99.90
33023;DHT22;19390;51.460;5.710;2022-08-03T10:03:31;37.90;99.90
33023;DHT22;19390;51.460;5.710;2022-08-03T10:05:57;38.80;99.90
33023;DHT22;19390;51.460;5.710;2022-08-03T10:08:23;37.10;99.90
33023;DHT22;19390;51.460;5.710;2022-08-03T10:10:50;36.30;99.90
33023;DHT22;19390;51.460;5.710;2022-08-03T10:13:19;37.00;99.90
33023;DHT22;19390;51.460;5.710;2022-08-03T10:15:45;39.10;99.90
33023;DHT22;19390;51.460;5.710;2022-08-03T10:18:11;38.20;99.90
33023;DHT22;19390;51.460;5.710;2022-08-03T10:20:42;38.40;99.90
33023;DHT22;19390;51.460;5.710;2022-08-03T10:23:10;37.90;99.90
33023;DHT22;19390;51.460;5.710;2022-08-03T10:25:37;38.80;99.70
33023;DHT22;19390;51.460;5.710;2022-08-03T10:28:05;39.20;98.50
33023;DHT22;19390;51.460;5.710;2022-08-03T10:30:32;39.10;98.30
33023;DHT22;19390;51.460;5.710;2022-08-03T10:33:06;36.20;99.90
33023;DHT22;19390;51.460;5.710;2022-08-03T10:35:32;36.70;99.90
33023;DHT22;19390;51.460;5.710;2022-08-03T10:38:11;37.60;99.80
33023;DHT22;19390;51.460;5.710;2022-08-03T10:40:40;38.70;98.80
33023;DHT22;19390;51.460;5.710;2022-08-03T10:43:11;37.70;99.30
33023;DHT22;19390;51.460;5.710;2022-08-03T10:45:40;37.00;99.30
33023;DHT22;19390;51.460;5.710;2022-08-03T10:48:07;37.20;99.10
33023;DHT22;19390;51.460;5.710;2022-08-03T10:50:33;38.70;99.10
33023;DHT22;19390;51.460;5.710;2022-08-03T10:53:04;38.70;98.10
33023;DHT22;19390;51.460;5.710;2022-08-03T10:55:41;38.90;98.30
33023;DHT22;19390;51.460;5.710;2022-08-03T10:58:47;37.70;98.40
33023;DHT22;19390;51.460;5.710;2022-08-03T11:01:14;39.30;97.30
33023;DHT22;19390;51.460;5.710;2022-08-03T11:06:23;37.60;97.20
33023;DHT22;19390;51.460;5.710;2022-08-03T11:11:39;36.10;98.40
33023;DHT22;19390;51.460;5.710;2022-08-03T11:14:10;37.20;98.40
33023;DHT22;19390;51.460;5.710;2022-08-03T11:19:07;38.80;96.70
33023;DHT22;19390;51.460;5.710;2022-08-03T11:30:10;37.10;96.50
33023;DHT22;19390;51.460;5.710;2022-08-03T11:40:43;37.90;96.60
33023;DHT22;19390;51.460;5.710;2022-08-03T11:46:03;40.70;95.00
33023;DHT22;19390;51.460;5.710;2022-08-03T11:48:40;38.40;95.60
33023;DHT22;19390;51.460;5.710;2022-08-03T11:53:56;36.80;97.00
33023;DHT22;19390;51.460;5.710;2022-08-03T11:56:22;37.50;96.70
33023;DHT22;19390;51.460;5.710;2022-08-03T11:58:49;37.50;97.00
33023;DHT22;19390;51.460;5.710;2022-08-03T12:01:18;36.00;97.50
33023;DHT22;19390;51.460;5.710;2022-08-03T12:03:44;35.80;97.80
33023;DHT22;19390;51.460;5.710;2022-08-03T12:06:11;35.90;98.40
33023;DHT22;19390;51.460;5.710;2022-08-03T12:08:37;37.30;98.00
33023;DHT22;19390;51.460;5.710;2022-08-03T12:11:05;38.80;96.80
33023;DHT22;19390;51.460;5.710;2022-08-03T12:13:40;38.80;96.00
33023;DHT22;19390;51.460;5.710;2022-08-03T12:16:06;37.70;96.90
33023;DHT22;19390;51.460;5.710;2022-08-03T12:18:32;37.90;97.40
33023;DHT22;19390;51.460;5.710;2022-08-03T12:21:09;37.30;97.10
33023;DHT22;19390;51.460;5.710;2022-08-03T12:23:36;36.60;98.60
33023;DHT22;19390;51.460;5.710;2022-08-03T12:26:04;36.90;97.50
33023;DHT22;19390;51.460;5.710;2022-08-03T12:28:30;38.30;97.30
33023;DHT22;19390;51.460;5.710;2022-08-03T12:31:00;37.70;96.90
33023;DHT22;19390;51.460;5.710;2022-08-03T12:33:27;38.30;96.80
33023;DHT22;19390;51.460;5.710;2022-08-03T12:36:09;39.00;95.80
33023;DHT22;19390;51.460;5.710;2022-08-03T12:38:38;38.00;96.10
33023;DHT22;19390;51.460;5.710;2022-08-03T12:41:05;37.20;97.30
33023;DHT22;19390;51.460;5.710;2022-08-03T12:43:31;38.90;96.60
33023;DHT22;19390;51.460;5.710;2022-08-03T12:46:08;39.20;95.80
33023;DHT22;19390;51.460;5.710;2022-08-03T12:48:34;36.40;97.10
33023;DHT22;19390;51.460;5.710;2022-08-03T12:51:09;37.20;97.70
33023;DHT22;19390;51.460;5.710;2022-08-03T12:53:35;38.80;96.60
33023;DHT22;19390;51.460;5.710;2022-08-03T12:56:03;39.50;95.10
33023;DHT22;19390;51.460;5.710;2022-08-03T12:58:31;38.00;95.80
33023;DHT22;19390;51.460;5.710;2022-08-03T13:00:58;38.20;95.70
33023;DHT22;19390;51.460;5.710;2022-08-03T13:03:23;37.60;95.80
33023;DHT22;19390;51.460;5.710;2022-08-03T13:05:49;37.60;96.40
33023;DHT22;19390;51.460;5.710;2022-08-03T13:08:19;38.40;95.90
33023;DHT22;19390;51.460;5.710;2022-08-03T13:10:45;40.10;95.90
33023;DHT22;19390;51.460;5.710;2022-08-03T13:13:11;39.90;94.80
33023;DHT22;19390;51.460;5.710;2022-08-03T13:15:37;38.90;95.60
33023;DHT22;19390;51.460;5.710;2022-08-03T13:18:02;38.60;95.10
33023;DHT22;19390;51.460;5.710;2022-08-03T13:20:28;39.30;95.10
33023;DHT22;19390;51.460;5.710;2022-08-03T13:22:54;39.80;94.40
33023;DHT22;19390;51.460;5.710;2022-08-03T13:25:21;40.40;94.50
33023;DHT22;19390;51.460;5.710;2022-08-03T13:27:46;40.90;93.70
33023;DHT22;19390;51.460;5.710;2022-08-03T13:30:12;40.10;93.70
33023;DHT22;19390;51.460;5.710;2022-08-03T13:32:38;38.80;94.80
33023;DHT22;19390;51.460;5.710;2022-08-03T13:35:05;39.50;94.00
33023;DHT22;19390;51.460;5.710;2022-08-03T13:37:31;40.00;94.20
33023;DHT22;19390;51.460;5.710;2022-08-03T13:39:57;40.80;94.20
33023;DHT22;19390;51.460;5.710;2022-08-03T13:42:24;40.50;93.60
33023;DHT22;19390;51.460;5.710;2022-08-03T13:44:50;38.10;94.10
33023;DHT22;19390;51.460;5.710;2022-08-03T13:47:15;38.60;94.10
33023;DHT22;19390;51.460;5.710;2022-08-03T13:49:41;37.50;94.80
33023;DHT22;19390;51.460;5.710;2022-08-03T13:52:06;37.20;95.50
33023;DHT22;19390;51.460;5.710;2022-08-03T13:54:32;36.00;95.70
33023;DHT22;19390;51.460;5.710;2022-08-03T13:56:58;35.60;96.40
33023;DHT22;19390;51.460;5.710;2022-08-03T13:59:25;35.70;96.50
33023;DHT22;19390;51.460;5.710;2022-08-03T14:01:52;36.80;96.30
33023;DHT22;19390;51.460;5.710;2022-08-03T14:04:18;38.00;95.20
33023;DHT22;19390;51.460;5.710;2022-08-03T14:06:44;38.10;95.60
33023;DHT22;19390;51.460;5.710;2022-08-03T14:09:13;37.80;95.70
33023;DHT22;19390;51.460;5.710;2022-08-03T14:11:40;35.00;96.10
33023;DHT22;19390;51.460;5.710;2022-08-03T14:14:06;35.40;96.00
33023;DHT22;19390;51.460;5.710;2022-08-03T14:16:31;35.40;96.30
33023;DHT22;19390;51.460;5.710;2022-08-03T14:18:57;34.90;96.80
33023;DHT22;19390;51.460;5.710;2022-08-03T14:21:23;34.90;97.00
33023;DHT22;19390;51.460;5.710;2022-08-03T14:23:48;36.70;97.60
33023;DHT22;19390;51.460;5.710;2022-08-03T14:26:14;36.50;96.80
33023;DHT22;19390;51.460;5.710;2022-08-03T14:28:40;36.30;96.90
33023;DHT22;19390;51.460;5.710;2022-08-03T14:31:06;37.50;97.00
33023;DHT22;19390;51.460;5.710;2022-08-03T14:33:31;36.90;96.60
33023;DHT22;19390;51.460;5.710;2022-08-03T14:35:57;37.10;96.40
33023;DHT22;19390;51.460;5.710;2022-08-03T14:38:23;36.70;95.90
33023;DHT22;19390;51.460;5.710;2022-08-03T14:40:49;37.00;95.80
33023;DHT22;19390;51.460;5.710;2022-08-03T14:43:15;36.80;96.20
33023;DHT22;19390;51.460;5.710;2022-08-03T14:45:45;35.90;96.70
33023;DHT22;19390;51.460;5.710;2022-08-03T14:48:11;35.70;97.00
33023;DHT22;19390;51.460;5.710;2022-08-03T14:50:37;36.50;96.80
33023;DHT22;19390;51.460;5.710;2022-08-03T14:53:02;36.30;96.60
33023;DHT22;19390;51.460;5.710;2022-08-03T14:55:28;36.30;96.50
33023;DHT22;19390;51.460;5.710;2022-08-03T14:57:54;36.00;97.00
33023;DHT22;19390;51.460;5.710;2022-08-03T15:00:19;35.90;96.50
33023;DHT22;19390;51.460;5.710;2022-08-03T15:02:45;35.40;97.40
33023;DHT22;19390;51.460;5.710;2022-08-03T15:05:11;34.80;97.50
33023;DHT22;19390;51.460;5.710;2022-08-03T15:07:37;34.80;97.70
33023;DHT22;19390;51.460;5.710;2022-08-03T15:10:03;35.00;97.40
33023;DHT22;19390;51.460;5.710;2022-08-03T15:12:29;35.20;97.80
33023;DHT22;19390;51.460;5.710;2022-08-03T15:14:54;34.20;98.10
33023;DHT22;19390;51.460;5.710;2022-08-03T15:17:20;34.70;97.90
33023;DHT22;19390;51.460;5.710;2022-08-03T15:19:46;35.20;97.80
33023;DHT22;19390;51.460;5.710;2022-08-03T15:22:11;35.40;97.90
33023;DHT22;19390;51.460;5.710;2022-08-03T15:24:40;34.80;98.20
33023;DHT22;19390;51.460;5.710;2022-08-03T15:27:05;35.00;98.00
33023;DHT22;19390;51.460;5.710;2022-08-03T15:29:31;34.70;98.80
33023;DHT22;19390;51.460;5.710;2022-08-03T15:31:56;34.50;99.80
33023;DHT22;19390;51.460;5.710;2022-08-03T15:34:22;33.50;99.90
33023;DHT22;19390;51.460;5.710;2022-08-03T15:36:48;34.40;99.50
33023;DHT22;19390;51.460;5.710;2022-08-03T15:39:13;33.60;99.90
33023;DHT22;19390;51.460;5.710;2022-08-03T15:41:39;33.90;99.50
33023;DHT22;19390;51.460;5.710;2022-08-03T15:44:05;34.10;99.90
33023;DHT22;19390;51.460;5.710;2022-08-03T15:46:30;33.80;99.90
33023;DHT22;19390;51.460;5.710;2022-08-03T15:48:56;33.90;99.90
33023;DHT22;19390;51.460;5.710;2022-08-03T15:51:22;33.90;99.30
33023;DHT22;19390;51.460;5.710;2022-08-03T15:53:48;34.20;99.90
33023;DHT22;19390;51.460;5.710;2022-08-03T15:56:13;33.90;99.90
33023;DHT22;19390;51.460;5.710;2022-08-03T15:58:39;34.40;99.90
33023;DHT22;19390;51.460;5.710;2022-08-03T16:01:05;34.00;99.90
33023;DHT22;19390;51.460;5.710;2022-08-03T16:03:31;33.80;99.90
33023;DHT22;19390;51.460;5.710;2022-08-03T16:06:00;34.00;99.70
33023;DHT22;19390;51.460;5.710;2022-08-03T16:08:26;34.20;99.40
33023;DHT22;19390;51.460;5.710;2022-08-03T16:10:52;34.20;98.60
33023;DHT22;19390;51.460;5.710;2022-08-03T16:13:18;33.90;98.80